Time;durP1;ratioP1;P1;durP2;ratioP2;P2;SDS_P1;SDS_P2;PMS_P1;PMS_P2;Temp;Humidity;BMP_temperature;BMP_pressure;BME280_temperature;BME280_humidity;BME280_pressure;Samples;Min_cycle;Max_cycle;Signal;HPM_P1;HPM_P2
2021/03/09 00:04:42;;;;;;;12.75;5.18;;;;;;;;;;5055643;28;20528;-51
2021/03/09 00:07:08;;;;;;;7.53;6.32;;;;;;;;;;5054963;28;20021;-50
2021/03/09 00:09:33;;;;;;;13.05;6.70;;;;;;;;;;5055987;28;20033;-53
2021/03/09 00:11:58;;;;;;;11.68;6.72;;;;;;;;;;5055615;28;20020;-49
2021/03/09 00:14:23;;;;;;;6.57;5.53;;;;;;;;;;5055252;28;20499;-48
2021/03/09 00:16:49;;;;;;;11.13;5.90;;;;;;;;;;5055018;28;20009;-52
2021/03/09 00:19:14;;;;;;;27.65;6.53;;;;;;;;;;5055137;28;20454;-47
2021/03/09 00:21:39;;;;;;;11.35;5.63;;;;;;;;;;5054213;28;20131;-50
2021/03/09 00:24:05;;;;;;;8.30;4.68;;;;;;;;;;5055067;28;20141;-50
2021/03/09 00:26:30;;;;;;;9.07;4.50;;;;;;;;;;5054720;28;20435;-48
2021/03/09 00:28:55;;;;;;;8.32;5.22;;;;;;;;;;5055400;28;20056;-49
2021/03/09 00:31:21;;;;;;;14.23;7.53;;;;;;;;;;5055232;28;20441;-47
2021/03/09 00:33:46;;;;;;;11.80;6.05;;;;;;;;;;5054931;28;20035;-50
2021/03/09 00:36:11;;;;;;;8.77;5.32;;;;;;;;;;5054390;28;20021;-46
2021/03/09 00:38:37;;;;;;;12.65;5.45;;;;;;;;;;5054962;28;20087;-48
2021/03/09 00:41:02;;;;;;;6.93;4.57;;;;;;;;;;5054538;28;20013;-51
2021/03/09 00:43:27;;;;;;;7.18;6.05;;;;;;;;;;5054472;28;20029;-48
2021/03/09 00:45:52;;;;;;;15.55;6.43;;;;;;;;;;5054695;28;20150;-50
2021/03/09 00:48:18;;;;;;;6.45;5.57;;;;;;;;;;5054227;28;20021;-51
2021/03/09 00:50:43;;;;;;;10.63;5.32;;;;;;;;;;5054835;28;20063;-49
2021/03/09 00:53:08;;;;;;;10.30;6.95;;;;;;;;;;5054426;28;20425;-54
2021/03/09 00:55:34;;;;;;;20.52;7.03;;;;;;;;;;5054283;28;20020;-50
2021/03/09 00:58:00;;;;;;;12.75;6.18;;;;;;;;;;5054183;28;20013;-48
2021/03/09 01:00:27;;;;;;;17.40;7.65;;;;;;;;;;5054460;28;20016;-51
2021/03/09 01:02:52;;;;;;;25.10;6.45;;;;;;;;;;5053781;28;20016;-46
2021/03/09 01:05:18;;;;;;;11.13;5.90;;;;;;;;;;5053962;28;20032;-50
2021/03/09 01:07:43;;;;;;;11.18;5.85;;;;;;;;;;5054150;28;20028;-52
2021/03/09 01:10:09;;;;;;;10.70;7.25;;;;;;;;;;5054224;28;20405;-48
2021/03/09 01:12:34;;;;;;;11.30;5.68;;;;;;;;;;5053903;28;20417;-50
2021/03/09 01:15:00;;;;;;;10.80;7.90;;;;;;;;;;5054005;28;20045;-47
2021/03/09 01:17:25;;;;;;;7.93;5.18;;;;;;;;;;5053564;28;20017;-51
2021/03/09 01:19:50;;;;;;;14.70;9.18;;;;;;;;;;5054202;28;20060;-49
2021/03/09 01:22:15;;;;;;;10.43;7.90;;;;;;;;;;5054041;28;20017;-47
2021/03/09 01:24:41;;;;;;;20.73;9.13;;;;;;;;;;5054150;28;20028;-47
2021/03/09 01:27:06;;;;;;;8.05;5.20;;;;;;;;;;5053708;28;20045;-46
2021/03/09 01:29:31;;;;;;;7.20;5.32;;;;;;;;;;5053025;28;20071;-52
2021/03/09 01:31:57;;;;;;;11.80;5.90;;;;;;;;;;5052524;28;20378;-46
2021/03/09 01:34:22;;;;;;;8.40;6.03;;;;;;;;;;5053469;28;20033;-48
2021/03/09 01:36:47;;;;;;;8.50;6.90;;;;;;;;;;5053522;28;20070;-49
2021/03/09 01:39:13;;;;;;;11.48;6.25;;;;;;;;;;5054271;28;20454;-46
2021/03/09 01:41:38;;;;;;;13.60;6.88;;;;;;;;;;5053494;28;20030;-52
2021/03/09 01:44:04;;;;;;;14.32;7.13;;;;;;;;;;5053423;28;20039;-52
2021/03/09 01:46:30;;;;;;;10.32;6.22;;;;;;;;;;5053656;28;20019;-47
2021/03/09 01:48:56;;;;;;;9.88;6.00;;;;;;;;;;5053545;28;20033;-51
2021/03/09 01:51:21;;;;;;;5.93;5.32;;;;;;;;;;5053025;28;20020;-48
2021/03/09 01:53:47;;;;;;;9.73;7.45;;;;;;;;;;5053303;28;20043;-52
2021/03/09 01:56:13;;;;;;;9.80;5.30;;;;;;;;;;5053250;28;20041;-49
2021/03/09 01:58:39;;;;;;;13.82;6.82;;;;;;;;;;5053686;28;20112;-53
2021/03/09 02:01:05;;;;;;;13.90;7.45;;;;;;;;;;5053174;28;20017;-52
2021/03/09 02:03:30;;;;;;;32.22;9.57;;;;;;;;;;5053551;28;20043;-51
2021/03/09 02:05:55;;;;;;;12.05;6.30;;;;;;;;;;5054220;28;20431;-50
2021/03/09 02:08:21;;;;;;;13.20;6.65;;;;;;;;;;5053463;28;20460;-52
2021/03/09 02:10:46;;;;;;;7.53;5.20;;;;;;;;;;5053316;28;20016;-53
2021/03/09 02:13:14;;;;;;;6.28;4.32;;;;;;;;;;5053119;28;20017;-52
2021/03/09 02:15:48;;;;;;;9.98;5.70;;;;;;;;;;5051519;28;20055;-47
2021/03/09 02:18:28;;;;;;;13.07;6.03;;;;;;;;;;5052705;28;20422;-51
2021/03/09 02:21:11;;;;;;;17.50;6.00;;;;;;;;;;5053095;28;20019;-51
2021/03/09 02:23:55;;;;;;;9.95;5.07;;;;;;;;;;5052896;28;20020;-50
2021/03/09 02:26:32;;;;;;;11.07;4.10;;;;;;;;;;5052974;28;20021;-51
2021/03/09 02:29:16;;;;;;;5.07;2.80;;;;;;;;;;5053061;28;20021;-50
2021/03/09 02:31:42;;;;;;;12.45;4.72;;;;;;;;;;5052849;28;20017;-51
2021/03/09 02:34:09;;;;;;;6.32;4.57;;;;;;;;;;5053197;28;20408;-48
2021/03/09 02:36:36;;;;;;;5.18;3.45;;;;;;;;;;5052869;28;20013;-47
2021/03/09 02:39:04;;;;;;;6.93;3.45;;;;;;;;;;5053200;28;20455;-53
2021/03/09 02:41:30;;;;;;;4.95;3.35;;;;;;;;;;5053542;28;20378;-50
2021/03/09 02:43:56;;;;;;;11.90;5.00;;;;;;;;;;5053172;28;20036;-47
2021/03/09 02:46:22;;;;;;;7.25;4.75;;;;;;;;;;5053836;28;20017;-50
2021/03/09 02:48:49;;;;;;;5.78;4.25;;;;;;;;;;5057191;28;20025;-51
2021/03/09 02:51:14;;;;;;;12.15;3.97;;;;;;;;;;5056362;28;20021;-50
2021/03/09 02:53:46;;;;;;;6.07;3.72;;;;;;;;;;5057083;28;20024;-49
2021/03/09 02:56:12;;;;;;;4.25;3.47;;;;;;;;;;5056550;28;20489;-49
2021/03/09 02:58:38;;;;;;;7.22;4.45;;;;;;;;;;5056484;28;20049;-49
2021/03/09 03:01:05;;;;;;;8.10;4.10;;;;;;;;;;5056464;28;20017;-49
2021/03/09 03:03:31;;;;;;;12.18;4.05;;;;;;;;;;5056453;28;20025;-51
2021/03/09 03:05:58;;;;;;;8.15;5.70;;;;;;;;;;5056315;28;20450;-49
2021/03/09 03:08:23;;;;;;;11.43;4.47;;;;;;;;;;5056189;28;20389;-48
2021/03/09 03:10:50;;;;;;;6.60;4.45;;;;;;;;;;5056560;28;20104;-51
2021/03/09 03:13:15;;;;;;;19.52;5.50;;;;;;;;;;5056171;28;20443;-50
2021/03/09 03:15:42;;;;;;;7.97;4.80;;;;;;;;;;5056749;28;20041;-47
2021/03/09 03:18:12;;;;;;;8.45;4.88;;;;;;;;;;5056116;28;20024;-49
2021/03/09 03:20:38;;;;;;;13.35;4.28;;;;;;;;;;5056082;28;20339;-49
2021/03/09 03:23:04;;;;;;;8.70;3.25;;;;;;;;;;5055805;28;20031;-48
2021/03/09 03:25:30;;;;;;;11.07;3.58;;;;;;;;;;5056182;28;20020;-50
2021/03/09 03:27:55;;;;;;;6.32;3.15;;;;;;;;;;5056119;28;20435;-46
2021/03/09 03:30:21;;;;;;;15.45;4.78;;;;;;;;;;5055882;28;20009;-46
2021/03/09 03:32:46;;;;;;;17.63;5.40;;;;;;;;;;5055709;28;20443;-49
2021/03/09 03:35:12;;;;;;;6.68;5.10;;;;;;;;;;5056113;28;20025;-50
2021/03/09 03:37:39;;;;;;;14.68;6.28;;;;;;;;;;5055980;28;20124;-48
2021/03/09 03:40:06;;;;;;;4.22;2.97;;;;;;;;;;5056672;28;20439;-50
2021/03/09 03:42:31;;;;;;;3.78;2.67;;;;;;;;;;5055715;28;20059;-49
2021/03/09 03:44:56;;;;;;;8.32;4.97;;;;;;;;;;5055158;28;20068;-47
2021/03/09 03:47:22;;;;;;;7.75;5.93;;;;;;;;;;5055863;28;20353;-51
2021/03/09 03:49:47;;;;;;;8.65;4.65;;;;;;;;;;5056249;28;20017;-51
2021/03/09 03:52:19;;;;;;;14.88;6.47;;;;;;;;;;5055249;28;20459;-48
2021/03/09 03:54:44;;;;;;;;;;;;;;;;;;5056622;28;20040;-48
2021/03/09 03:57:22;;;;;;;10.93;5.25;;;;;;;;;;5054744;28;19901;-47
2021/03/09 03:59:51;;;;;;;9.70;5.20;;;;;;;;;;5055700;28;20459;-51
2021/03/09 04:02:16;;;;;;;18.35;6.03;;;;;;;;;;5055611;28;20032;-50
2021/03/09 04:04:44;;;;;;;7.38;4.18;;;;;;;;;;5055050;28;20033;-48
2021/03/09 04:07:09;;;;;;;6.65;4.90;;;;;;;;;;5054929;28;20023;-47
2021/03/09 04:09:35;;;;;;;5.72;5.13;;;;;;;;;;5055505;28;20108;-48
2021/03/09 04:12:01;;;;;;;10.68;6.00;;;;;;;;;;5054871;28;20021;-46
2021/03/09 04:14:29;;;;;;;9.93;6.78;;;;;;;;;;5055254;28;20415;-48
2021/03/09 04:16:55;;;;;;;17.15;8.23;;;;;;;;;;5054962;28;20020;-46
2021/03/09 04:19:22;;;;;;;9.38;5.55;;;;;;;;;;5054028;28;20036;-46
2021/03/09 04:21:47;;;;;;;11.82;6.45;;;;;;;;;;5054901;28;20497;-50
2021/03/09 04:24:13;;;;;;;13.52;7.18;;;;;;;;;;5055104;28;20037;-49
2021/03/09 04:26:40;;;;;;;16.48;7.47;;;;;;;;;;5054798;28;20465;-49
2021/03/09 04:29:06;;;;;;;6.93;5.93;;;;;;;;;;5054892;28;20075;-45
2021/03/09 04:31:32;;;;;;;9.05;5.50;;;;;;;;;;5054741;28;20063;-52
2021/03/09 04:33:57;;;;;;;16.33;6.28;;;;;;;;;;5054897;28;20060;-47
2021/03/09 04:36:23;;;;;;;10.70;5.53;;;;;;;;;;5054680;28;20498;-48
2021/03/09 04:38:48;;;;;;;22.98;6.70;;;;;;;;;;5055268;28;20490;-49
2021/03/09 04:41:15;;;;;;;11.60;6.10;;;;;;;;;;5054493;28;20025;-47
2021/03/09 04:43:40;;;;;;;11.77;6.20;;;;;;;;;;5055023;28;20037;-48
2021/03/09 04:46:06;;;;;;;11.60;7.95;;;;;;;;;;5055017;28;20016;-50
2021/03/09 04:48:31;;;;;;;7.35;5.60;;;;;;;;;;5054549;28;20453;-50
2021/03/09 04:51:00;;;;;;;9.07;6.13;;;;;;;;;;5053407;28;20013;-50
2021/03/09 04:53:26;;;;;;;12.30;6.13;;;;;;;;;;5054425;28;20032;-48
2021/03/09 04:55:51;;;;;;;10.50;5.68;;;;;;;;;;5054330;28;20017;-46
2021/03/09 04:58:16;;;;;;;14.43;6.55;;;;;;;;;;5054828;28;20021;-51
2021/03/09 05:00:42;;;;;;;11.25;5.07;;;;;;;;;;5054696;28;20316;-47
2021/03/09 05:03:07;;;;;;;14.32;6.72;;;;;;;;;;5054150;28;20056;-46
2021/03/09 05:05:32;;;;;;;13.48;7.10;;;;;;;;;;5054061;28;20447;-50
2021/03/09 05:07:58;;;;;;;14.20;7.03;;;;;;;;;;5053782;28;20017;-47
2021/03/09 05:10:23;;;;;;;11.57;7.25;;;;;;;;;;5053042;28;20473;-46
2021/03/09 05:12:49;;;;;;;15.40;8.48;;;;;;;;;;5053607;28;20033;-50
2021/03/09 05:15:15;;;;;;;8.30;6.22;;;;;;;;;;5054345;28;20044;-49
2021/03/09 05:17:40;;;;;;;10.80;6.80;;;;;;;;;;5053576;28;20371;-48
2021/03/09 05:20:06;;;;;;;10.35;6.43;;;;;;;;;;5054864;28;20021;-47
2021/03/09 05:22:32;;;;;;;10.25;7.97;;;;;;;;;;5053612;28;20036;-49
2021/03/09 05:24:57;;;;;;;11.20;6.47;;;;;;;;;;5054138;28;20037;-50
2021/03/09 05:27:22;;;;;;;9.75;6.65;;;;;;;;;;5054182;28;20032;-50
2021/03/09 05:29:48;;;;;;;28.50;7.00;;;;;;;;;;5053940;28;20427;-51
2021/03/09 05:32:13;;;;;;;10.75;5.25;;;;;;;;;;5053701;28;20027;-52
2021/03/09 05:34:39;;;;;;;13.55;5.43;;;;;;;;;;5053874;28;20120;-47
2021/03/09 05:37:06;;;;;;;5.82;4.38;;;;;;;;;;5052244;28;20025;-50
2021/03/09 05:39:32;;;;;;;12.23;5.80;;;;;;;;;;5053860;28;20017;-51
2021/03/09 05:41:57;;;;;;;10.00;4.93;;;;;;;;;;5053098;28;20379;-46
2021/03/09 05:44:22;;;;;;;12.35;6.47;;;;;;;;;;5053622;28;20033;-50
2021/03/09 05:46:48;;;;;;;9.85;6.40;;;;;;;;;;5053112;28;20017;-48
2021/03/09 05:49:13;;;;;;;5.43;4.78;;;;;;;;;;5053636;28;20427;-48
2021/03/09 05:51:38;;;;;;;9.65;5.35;;;;;;;;;;5053816;28;20346;-47
2021/03/09 05:54:04;;;;;;;6.28;4.75;;;;;;;;;;5053462;28;20029;-51
2021/03/09 05:56:29;;;;;;;13.82;5.72;;;;;;;;;;5053273;28;20021;-47
2021/03/09 05:58:54;;;;;;;8.98;5.55;;;;;;;;;;5053810;28;20342;-49
2021/03/09 06:01:20;;;;;;;11.27;6.22;;;;;;;;;;5051524;28;20063;-49
2021/03/09 06:03:45;;;;;;;9.20;5.32;;;;;;;;;;5053287;28;20039;-48
2021/03/09 06:06:11;;;;;;;10.75;4.93;;;;;;;;;;5053211;28;20138;-50
2021/03/09 06:08:36;;;;;;;10.57;5.45;;;;;;;;;;5053319;28;20028;-46
2021/03/09 06:11:17;;;;;;;8.43;4.70;;;;;;;;;;5052825;28;20028;-52
2021/03/09 06:13:43;;;;;;;8.27;5.20;;;;;;;;;;5052900;28;20033;-49
2021/03/09 06:16:08;;;;;;;6.13;3.90;;;;;;;;;;5053564;28;20111;-48
2021/03/09 06:18:34;;;;;;;10.48;4.53;;;;;;;;;;5053093;28;20131;-52
2021/03/09 06:21:08;;;;;;;8.45;3.95;;;;;;;;;;5055499;28;20024;-50
2021/03/09 06:23:34;;;;;;;7.68;5.50;;;;;;;;;;5057081;28;20032;-50
2021/03/09 06:25:59;;;;;;;7.15;4.80;;;;;;;;;;5057060;28;20021;-48
2021/03/09 06:28:31;;;;;;;9.90;6.72;;;;;;;;;;5057460;28;20053;-58
2021/03/09 06:30:59;;;;;;;9.02;4.18;;;;;;;;;;5056716;28;20020;-55
2021/03/09 06:33:28;;;;;;;11.15;6.22;;;;;;;;;;5056903;28;20454;-57
2021/03/09 06:35:55;;;;;;;6.10;4.63;;;;;;;;;;5056763;28;20013;-58
2021/03/09 06:38:22;;;;;;;12.65;6.10;;;;;;;;;;5056855;28;20021;-58
2021/03/09 06:41:06;;;;;;;5.18;3.75;;;;;;;;;;5056758;28;20021;-58
2021/03/09 06:43:32;;;;;;;6.95;5.70;;;;;;;;;;5056614;28;20039;-58
2021/03/09 06:46:17;;;;;;;11.27;6.25;;;;;;;;;;5057459;28;19909;-51
2021/03/09 06:48:42;;;;;;;14.70;5.80;;;;;;;;;;5056711;28;20025;-54
2021/03/09 06:51:23;;;;;;;12.60;5.47;;;;;;;;;;5056571;28;20016;-53
2021/03/09 06:53:56;;;;;;;7.00;4.53;;;;;;;;;;5057224;28;20025;-56
2021/03/09 06:56:26;;;;;;;10.13;6.50;;;;;;;;;;5056690;28;20017;-55
2021/03/09 06:58:51;;;;;;;13.93;9.27;;;;;;;;;;5056980;28;20052;-54
2021/03/09 07:01:16;;;;;;;6.90;4.78;;;;;;;;;;5056991;28;20024;-56
2021/03/09 07:03:41;;;;;;;16.52;6.60;;;;;;;;;;5056958;28;20454;-53
2021/03/09 07:06:07;;;;;;;8.45;6.50;;;;;;;;;;5055941;28;20013;-51
2021/03/09 07:08:32;;;;;;;16.40;7.88;;;;;;;;;;5056660;28;20052;-55
2021/03/09 07:10:58;;;;;;;9.38;6.45;;;;;;;;;;5055954;28;20032;-51
2021/03/09 07:13:24;;;;;;;23.02;9.15;;;;;;;;;;5055819;28;20017;-53
2021/03/09 07:15:51;;;;;;;8.77;7.95;;;;;;;;;;5056470;28;20049;-58
2021/03/09 07:18:19;;;;;;;14.95;9.50;;;;;;;;;;5055865;28;20082;-58
2021/03/09 07:20:45;;;;;;;13.77;7.07;;;;;;;;;;5055762;28;20017;-58
2021/03/09 07:23:10;;;;;;;16.65;6.63;;;;;;;;;;5055904;28;20033;-58
2021/03/09 07:25:36;;;;;;;8.00;6.03;;;;;;;;;;5055895;28;20035;-59
2021/03/09 07:28:02;;;;;;;9.82;8.10;;;;;;;;;;5054953;28;20143;-57
2021/03/09 07:30:29;;;;;;;17.48;7.35;;;;;;;;;;5055810;28;20024;-56
2021/03/09 07:32:55;;;;;;;12.30;7.80;;;;;;;;;;5055148;28;20024;-57
2021/03/09 07:35:21;;;;;;;10.68;6.43;;;;;;;;;;5054659;28;20021;-58
2021/03/09 07:37:46;;;;;;;32.42;8.45;;;;;;;;;;5055874;28;20351;-58
2021/03/09 07:40:16;;;;;;;12.90;7.05;;;;;;;;;;5055433;28;20017;-58
2021/03/09 07:42:42;;;;;;;14.10;6.65;;;;;;;;;;5055558;28;20013;-57
2021/03/09 07:45:11;;;;;;;13.85;6.25;;;;;;;;;;5055495;28;20047;-58
2021/03/09 07:48:03;;;;;;;10.95;7.18;;;;;;;;;;5055218;28;20021;-57
2021/03/09 07:50:28;;;;;;;;;;;;;;;;;;5053890;28;20128;-57
2021/03/09 07:53:14;;;;;;;9.93;7.15;;;;;;;;;;5055119;28;19982;-57
2021/03/09 07:55:39;;;;;;;12.77;9.95;;;;;;;;;;5055275;28;20056;-58
2021/03/09 07:58:15;;;;;;;27.17;11.82;;;;;;;;;;5055375;28;20428;-58
2021/03/09 08:00:46;;;;;;;17.42;12.02;;;;;;;;;;5055287;28;20032;-58
2021/03/09 08:03:18;;;;;;;45.92;32.03;;;;;;;;;;5056004;28;20482;-57
2021/03/09 08:05:47;;;;;;;22.45;19.35;;;;;;;;;;5054890;28;20033;-58
2021/03/09 08:08:33;;;;;;;16.95;13.32;;;;;;;;;;5055215;28;20056;-58
2021/03/09 08:10:58;;;;;;;11.88;6.75;;;;;;;;;;5055019;28;20052;-58
2021/03/09 08:13:24;;;;;;;9.45;6.53;;;;;;;;;;5055134;28;20071;-58
2021/03/09 08:15:50;;;;;;;12.82;5.70;;;;;;;;;;5054530;28;20048;-56
2021/03/09 08:18:21;;;;;;;9.95;6.00;;;;;;;;;;5054676;28;20025;-58
2021/03/09 08:20:51;;;;;;;20.63;7.20;;;;;;;;;;5054947;28;20021;-58
2021/03/09 08:23:35;;;;;;;15.40;7.45;;;;;;;;;;5053415;28;20035;-58
2021/03/09 08:26:19;;;;;;;10.40;6.15;;;;;;;;;;5055110;28;20032;-58
2021/03/09 08:28:44;;;;;;;15.32;6.40;;;;;;;;;;5055005;28;20029;-58
2021/03/09 08:31:09;;;;;;;6.95;3.97;;;;;;;;;;5054490;28;20023;-58
2021/03/09 08:34:13;;;;;;;11.23;6.82;;;;;;;;;;5054841;28;20412;-58
2021/03/09 08:36:38;;;;;;;6.90;4.30;;;;;;;;;;5054849;28;20012;-57
2021/03/09 08:39:04;;;;;;;3.50;2.40;;;;;;;;;;5055068;28;20390;-60
2021/03/09 08:41:42;;;;;;;10.98;7.65;;;;;;;;;;5054512;28;20016;-60
2021/03/09 08:44:20;;;;;;;22.23;12.32;;;;;;;;;;5053535;28;20056;-59
2021/03/09 08:46:52;;;;;;;34.47;10.98;;;;;;;;;;5054182;28;20020;-59
2021/03/09 08:49:36;;;;;;;21.17;9.10;;;;;;;;;;5054649;28;20021;-60
2021/03/09 08:52:08;;;;;;;19.50;11.55;;;;;;;;;;5053972;28;20104;-60
2021/03/09 08:54:41;;;;;;;19.52;5.60;;;;;;;;;;5054454;28;20113;-60
2021/03/09 08:57:07;;;;;;;16.70;6.05;;;;;;;;;;5054134;28;20024;-60
2021/03/09 08:59:34;;;;;;;9.52;6.93;;;;;;;;;;5052983;28;20043;-61
2021/03/09 09:02:18;;;;;;;14.88;5.00;;;;;;;;;;5053959;28;20055;-60
2021/03/09 09:04:45;;;;;;;6.60;4.28;;;;;;;;;;5052924;28;20359;-61
2021/03/09 09:07:29;;;;;;;15.05;4.43;;;;;;;;;;5051769;28;20023;-60
2021/03/09 09:09:58;;;;;;;8.18;3.58;;;;;;;;;;5051125;28;20071;-60
2021/03/09 09:12:25;;;;;;;6.43;3.38;;;;;;;;;;5052980;28;20017;-61
2021/03/09 09:15:03;;;;;;;10.88;5.93;;;;;;;;;;5053949;28;20119;-61
2021/03/09 09:17:28;;;;;;;4.80;4.10;;;;;;;;;;5053855;28;20016;-61
2021/03/09 09:19:57;;;;;;;13.95;7.10;;;;;;;;;;5054270;28;20398;-61
2021/03/09 09:22:23;;;;;;;22.98;6.82;;;;;;;;;;5054488;28;20013;-61
2021/03/09 09:27:54;;;;;;;23.65;12.05;;;;;;;;;;5053616;28;20153;-62
2021/03/09 09:30:32;;;;;;;21.23;5.60;;;;;;;;;;5053740;28;20024;-62
2021/03/09 09:32:58;;;;;;;5.82;5.15;;;;;;;;;;5054204;28;20142;-62
2021/03/09 09:35:25;;;;;;;5.47;3.47;;;;;;;;;;5053629;28;20055;-62
2021/03/09 09:38:00;;;;;;;14.13;6.80;;;;;;;;;;5053653;28;20385;-62
2021/03/09 09:40:31;;;;;;;8.98;5.60;;;;;;;;;;5054327;28;20013;-63
2021/03/09 09:42:58;;;;;;;19.38;6.00;;;;;;;;;;5053667;28;20013;-62
2021/03/09 09:45:24;;;;;;;10.82;6.28;;;;;;;;;;5053011;28;20033;-63
2021/03/09 09:47:50;;;;;;;4.55;3.50;;;;;;;;;;5053648;28;20155;-63
2021/03/09 09:50:16;;;;;;;3.70;2.95;;;;;;;;;;5053388;28;20032;-63
2021/03/09 09:52:50;;;;;;;13.30;4.57;;;;;;;;;;5052057;28;20393;-63
2021/03/09 09:55:18;;;;;;;9.80;4.43;;;;;;;;;;5053228;28;20340;-62
2021/03/09 09:57:54;;;;;;;6.32;4.70;;;;;;;;;;5053404;28;20013;-62
2021/03/09 10:00:30;;;;;;;7.35;2.80;;;;;;;;;;5053155;28;20021;-63
2021/03/09 10:06:14;;;;;;;7.47;4.63;;;;;;;;;;5052892;28;20379;-63
2021/03/09 10:08:39;;;;;;;;;;;;;;;;;;5054182;28;20037;-63
2021/03/09 10:11:04;;;;;;;11.73;4.07;;;;;;;;;;5052999;28;20242;-62
2021/03/09 10:13:29;;;;;;;8.82;6.40;;;;;;;;;;5052893;28;20592;-58
2021/03/09 10:15:55;;;;;;;15.88;8.38;;;;;;;;;;5053402;28;20051;-64
2021/03/09 10:18:22;;;;;;;9.98;6.60;;;;;;;;;;5053314;28;20032;-64
2021/03/09 10:20:56;;;;;;;17.65;7.35;;;;;;;;;;5053027;28;20108;-64
2021/03/09 10:23:22;;;;;;;13.55;6.43;;;;;;;;;;5053344;28;20621;-63
2021/03/09 10:25:47;;;;;;;6.68;4.70;;;;;;;;;;5052665;28;20133;-64
2021/03/09 10:28:12;;;;;;;10.35;3.90;;;;;;;;;;5052069;28;20046;-64
2021/03/09 10:30:41;;;;;;;5.82;3.47;;;;;;;;;;5052605;28;20044;-63
2021/03/09 10:33:10;;;;;;;12.93;6.07;;;;;;;;;;5052708;28;20119;-65
2021/03/09 10:35:55;;;;;;;6.28;4.05;;;;;;;;;;5052941;28;20470;-63
2021/03/09 10:38:21;;;;;;;19.55;5.55;;;;;;;;;;5052836;28;20100;-64
2021/03/09 10:40:47;;;;;;;9.38;5.90;;;;;;;;;;5052907;28;20036;-64
2021/03/09 10:43:12;;;;;;;8.85;5.25;;;;;;;;;;5052761;28;20363;-65
2021/03/09 10:45:39;;;;;;;6.65;3.60;;;;;;;;;;5053137;28;20367;-65
2021/03/09 10:48:05;;;;;;;11.50;5.97;;;;;;;;;;5052675;28;20021;-65
2021/03/09 10:50:32;;;;;;;7.32;3.50;;;;;;;;;;5052763;28;20033;-66
2021/03/09 10:52:57;;;;;;;14.73;4.80;;;;;;;;;;5052859;28;20051;-66
2021/03/09 10:55:23;;;;;;;11.57;2.83;;;;;;;;;;5052712;28;20021;-65
2021/03/09 10:57:48;;;;;;;5.80;3.72;;;;;;;;;;5053108;28;20044;-67
2021/03/09 11:00:17;;;;;;;7.35;5.45;;;;;;;;;;5052303;28;20360;-65
2021/03/09 11:02:43;;;;;;;9.18;4.70;;;;;;;;;;5052507;28;20100;-70
2021/03/09 11:05:09;;;;;;;6.57;4.82;;;;;;;;;;5052657;28;20055;-55
2021/03/09 11:07:35;;;;;;;9.80;8.02;;;;;;;;;;5053558;28;20180;-62
2021/03/09 11:10:00;;;;;;;4.90;2.40;;;;;;;;;;5056615;28;20115;-62
2021/03/09 11:12:26;;;;;;;13.05;5.63;;;;;;;;;;5055924;28;20021;-61
2021/03/09 11:14:51;;;;;;;7.90;5.00;;;;;;;;;;5056334;28;20399;-63
2021/03/09 11:17:16;;;;;;;8.13;7.22;;;;;;;;;;5056364;28;20039;-63
2021/03/09 11:19:42;;;;;;;12.02;8.00;;;;;;;;;;5056696;28;20339;-62
2021/03/09 11:22:07;;;;;;;9.65;7.32;;;;;;;;;;5056772;28;20423;-62
2021/03/09 11:24:32;;;;;;;10.88;6.65;;;;;;;;;;5056235;28;20374;-62
2021/03/09 11:27:01;;;;;;;14.32;4.82;;;;;;;;;;5055871;28;20064;-62
2021/03/09 11:29:27;;;;;;;14.57;6.15;;;;;;;;;;5054741;28;20071;-62
2021/03/09 11:31:53;;;;;;;12.43;4.97;;;;;;;;;;5056297;28;20116;-63
2021/03/09 11:34:18;;;;;;;9.88;4.97;;;;;;;;;;5056264;28;20110;-63
2021/03/09 11:36:43;;;;;;;9.93;4.60;;;;;;;;;;5055760;28;20025;-62
2021/03/09 11:39:09;;;;;;;10.30;5.22;;;;;;;;;;5055839;28;20028;-63
2021/03/09 11:41:34;;;;;;;14.57;5.90;;;;;;;;;;5055691;28;20029;-62
2021/03/09 11:43:59;;;;;;;20.83;5.18;;;;;;;;;;5055221;28;20471;-63
2021/03/09 11:46:24;;;;;;;8.80;5.22;;;;;;;;;;5055617;28;20035;-65
2021/03/09 11:48:50;;;;;;;9.20;5.35;;;;;;;;;;5056246;28;20469;-64
2021/03/09 11:51:15;;;;;;;10.25;4.93;;;;;;;;;;5056070;28;20036;-65
2021/03/09 11:53:41;;;;;;;9.75;4.47;;;;;;;;;;5055935;28;20116;-66
2021/03/09 11:56:07;;;;;;;12.32;4.75;;;;;;;;;;5054170;28;20025;-65
2021/03/09 11:58:32;;;;;;;13.27;4.53;;;;;;;;;;5055534;28;20020;-66
2021/03/09 12:00:57;;;;;;;4.55;2.72;;;;;;;;;;5055007;28;20036;-61
2021/03/09 12:03:23;;;;;;;20.55;7.13;;;;;;;;;;5054010;28;20468;-62
2021/03/09 12:05:48;;;;;;;13.07;6.68;;;;;;;;;;5055350;28;20036;-66
2021/03/09 12:08:13;;;;;;;20.33;15.60;;;;;;;;;;5055152;28;20032;-63
2021/03/09 12:10:39;;;;;;;23.83;10.02;;;;;;;;;;5055306;28;20037;-64
2021/03/09 12:13:04;;;;;;;9.10;7.38;;;;;;;;;;5055772;28;20089;-66
2021/03/09 12:15:30;;;;;;;10.25;6.75;;;;;;;;;;5054528;28;20498;-62
2021/03/09 12:17:55;;;;;;;7.15;3.65;;;;;;;;;;5054804;28;20013;-64
2021/03/09 12:20:20;;;;;;;19.50;5.78;;;;;;;;;;5054604;28;20044;-63
2021/03/09 12:22:46;;;;;;;9.73;5.15;;;;;;;;;;5055618;28;20021;-65
2021/03/09 12:25:11;;;;;;;8.63;5.45;;;;;;;;;;5055393;28;20037;-64
2021/03/09 12:27:36;;;;;;;7.18;4.80;;;;;;;;;;5055435;28;20336;-64
2021/03/09 12:30:03;;;;;;;13.57;2.90;;;;;;;;;;5055193;28;20067;-65
2021/03/09 12:32:29;;;;;;;15.10;5.43;;;;;;;;;;5054408;28;20100;-64
2021/03/09 12:34:54;;;;;;;11.82;4.45;;;;;;;;;;5055641;28;20150;-64
2021/03/09 12:37:19;;;;;;;16.67;6.10;;;;;;;;;;5055194;28;20043;-65
2021/03/09 12:39:45;;;;;;;11.82;4.82;;;;;;;;;;5054794;28;20017;-64
2021/03/09 12:42:10;;;;;;;7.28;4.18;;;;;;;;;;5051872;28;20036;-64
2021/03/09 12:44:35;;;;;;;8.18;4.60;;;;;;;;;;5050561;28;20104;-64
2021/03/09 12:47:09;;;;;;;10.00;5.05;;;;;;;;;;5049263;28;20123;-64
2021/03/09 12:49:45;;;;;;;10.27;5.80;;;;;;;;;;5051365;28;20028;-63
2021/03/09 12:52:10;;;;;;;12.02;5.72;;;;;;;;;;5047389;28;20346;-63
2021/03/09 12:54:35;;;;;;;13.23;6.82;;;;;;;;;;5047724;28;20398;-64
2021/03/09 12:57:01;;;;;;;6.40;5.15;;;;;;;;;;5048738;28;20018;-64
2021/03/09 12:59:26;;;;;;;13.20;5.75;;;;;;;;;;5046824;28;20058;-64
2021/03/09 13:01:51;;;;;;;11.63;6.20;;;;;;;;;;5054174;28;20024;-65
2021/03/09 13:07:20;;;;;;;9.70;5.10;;;;;;;;;;5053877;28;20027;-65
2021/03/09 13:09:45;;;;;;;12.25;5.32;;;;;;;;;;5054047;28;20112;-64
2021/03/09 13:12:10;;;;;;;11.07;6.50;;;;;;;;;;5053887;28;20028;-64
2021/03/09 13:14:35;;;;;;;7.88;5.45;;;;;;;;;;5052299;28;20390;-63
2021/03/09 13:17:01;;;;;;;8.02;5.25;;;;;;;;;;5035286;28;20466;-61
2021/03/09 13:19:26;;;;;;;7.60;5.03;;;;;;;;;;5034770;28;20427;-63
2021/03/09 13:21:52;;;;;;;9.05;4.35;;;;;;;;;;5033695;28;20116;-64
2021/03/09 13:24:17;;;;;;;18.73;5.43;;;;;;;;;;5034025;28;20045;-64
2021/03/09 13:26:43;;;;;;;9.60;5.72;;;;;;;;;;5033631;28;20120;-63
2021/03/09 13:29:08;;;;;;;26.52;6.53;;;;;;;;;;5033340;28;20100;-63
2021/03/09 13:31:33;;;;;;;13.13;5.90;;;;;;;;;;5032938;28;20021;-64
2021/03/09 13:33:58;;;;;;;18.02;6.20;;;;;;;;;;5033787;28;20101;-63
2021/03/09 13:39:27;;;;;;;12.77;7.22;;;;;;;;;;5034164;28;20028;-63
2021/03/09 13:41:52;;;;;;;18.27;6.72;;;;;;;;;;5033510;28;20018;-63
2021/03/09 13:44:17;;;;;;;12.23;5.68;;;;;;;;;;5033650;28;20057;-64
2021/03/09 13:46:44;;;;;;;7.18;6.10;;;;;;;;;;5033465;28;20421;-63
2021/03/09 13:49:10;;;;;;;12.70;6.10;;;;;;;;;;5033589;28;20025;-63
2021/03/09 13:51:35;;;;;;;17.25;6.65;;;;;;;;;;5033417;28;20068;-63
2021/03/09 13:54:00;;;;;;;6.25;5.07;;;;;;;;;;5033855;28;20247;-64
2021/03/09 13:56:26;;;;;;;9.35;6.95;;;;;;;;;;5032353;28;20022;-64
2021/03/09 13:58:51;;;;;;;19.92;7.80;;;;;;;;;;5033427;28;20444;-65
2021/03/09 14:01:16;;;;;;;13.43;5.78;;;;;;;;;;5033894;28;20026;-65
2021/03/09 14:03:42;;;;;;;13.02;7.32;;;;;;;;;;5052862;28;20358;-64
2021/03/09 14:06:08;;;;;;;8.82;6.18;;;;;;;;;;5051647;28;20074;-62
2021/03/09 14:08:33;;;;;;;15.02;4.72;;;;;;;;;;5051145;28;20025;-63
2021/03/09 14:10:58;;;;;;;15.98;4.55;;;;;;;;;;5050261;28;20013;-63
2021/03/09 14:13:24;;;;;;;9.88;5.57;;;;;;;;;;5048330;28;20017;-64
2021/03/09 14:15:49;;;;;;;13.05;4.60;;;;;;;;;;5053962;28;20068;-64
2021/03/09 14:18:14;;;;;;;3.55;2.53;;;;;;;;;;5051313;28;20051;-63
2021/03/09 14:20:40;;;;;;;9.63;5.30;;;;;;;;;;5053070;28;20109;-66
2021/03/09 14:23:05;;;;;;;9.68;6.10;;;;;;;;;;5052695;28;20421;-65
2021/03/09 14:28:33;;;;;;;8.68;4.50;;;;;;;;;;5053178;28;20063;-65
2021/03/09 14:30:58;;;;;;;8.75;5.18;;;;;;;;;;5052825;28;20021;-64
2021/03/09 14:33:24;;;;;;;10.93;4.78;;;;;;;;;;5052956;28;20036;-64
2021/03/09 14:35:49;;;;;;;10.52;3.78;;;;;;;;;;5052864;28;20029;-65
2021/03/09 14:38:14;;;;;;;8.23;4.80;;;;;;;;;;5053291;28;20406;-63
2021/03/09 14:40:40;;;;;;;14.02;4.95;;;;;;;;;;5052211;28;20442;-63
2021/03/09 14:43:05;;;;;;;10.82;4.97;;;;;;;;;;5056690;28;20052;-63
2021/03/09 14:45:30;;;;;;;5.82;5.25;;;;;;;;;;5056303;28;20029;-63
2021/03/09 14:47:55;;;;;;;18.50;6.43;;;;;;;;;;5056679;28;20020;-62
2021/03/09 14:50:21;;;;;;;11.57;5.68;;;;;;;;;;5057054;28;20017;-62
2021/03/09 14:52:47;;;;;;;7.85;4.53;;;;;;;;;;5056314;28;20454;-62
2021/03/09 14:55:12;;;;;;;13.52;5.70;;;;;;;;;;5056283;28;20028;-64